createdAt,value
2019-04-27T00:00:05.837Z,49.29
2019-04-27T00:02:46.397Z,49.39
2019-04-27T00:05:17.757Z,49.31
2019-04-27T00:07:46.222Z,49.29
2019-04-27T00:10:14.665Z,49.27
2019-04-27T00:12:42.886Z,49.31
2019-04-27T00:15:13.100Z,49.32
2019-04-27T00:17:49.597Z,49.33
2019-04-27T00:20:33.269Z,49.30
2019-04-27T00:23:07.761Z,49.53
2019-04-27T00:25:34.571Z,49.48
2019-04-27T00:28:01.366Z,49.34
2019-04-27T00:30:28.310Z,49.34
2019-04-27T00:32:55.100Z,49.36
2019-04-27T00:35:23.559Z,49.53
2019-04-27T00:37:58.012Z,49.39
2019-04-27T00:40:26.442Z,49.32
2019-04-27T00:42:54.165Z,49.36
2019-04-27T00:45:21.066Z,49.25
2019-04-27T00:47:56.834Z,49.47
2019-04-27T00:50:16.422Z,49.48
2019-04-27T00:52:43.196Z,49.36
2019-04-27T00:55:10.012Z,49.46
2019-04-27T00:57:50.522Z,49.49
2019-04-27T01:00:35.143Z,49.38
2019-04-27T01:03:06.470Z,49.32
2019-04-27T01:05:33.869Z,49.40
2019-04-27T01:08:00.853Z,49.42
2019-04-27T01:10:27.656Z,49.46
2019-04-27T01:12:54.461Z,49.51
2019-04-27T01:15:21.326Z,49.40
2019-04-27T01:17:49.045Z,49.59
2019-04-27T01:20:15.909Z,49.51
2019-04-27T01:22:42.736Z,49.58
2019-04-27T01:25:09.531Z,49.34
2019-04-27T01:27:40.654Z,49.47
2019-04-27T01:30:09.091Z,49.53
2019-04-27T01:32:35.908Z,49.48
2019-04-27T01:35:02.717Z,49.45
2019-04-27T01:37:29.548Z,49.57
2019-04-27T01:39:56.371Z,49.70
2019-04-27T01:42:23.155Z,49.49
2019-04-27T01:44:51.126Z,49.70
2019-04-27T01:47:18.729Z,49.70
2019-04-27T01:49:45.873Z,49.54
2019-04-27T01:52:12.694Z,49.50
2019-04-27T01:54:41.081Z,49.82
2019-04-27T01:57:08.189Z,49.69
2019-04-27T01:59:34.952Z,49.81
2019-04-27T02:02:03.436Z,49.78
2019-04-27T02:04:40.887Z,49.74
2019-04-27T02:07:09.161Z,49.65
2019-04-27T02:09:35.948Z,49.68
2019-04-27T02:12:02.755Z,49.69
2019-04-27T02:14:29.538Z,49.89
2019-04-27T02:16:56.339Z,49.81
2019-04-27T02:19:23.643Z,49.70
2019-04-27T02:21:51.554Z,49.84
2019-04-27T02:24:18.718Z,49.98
2019-04-27T02:26:45.540Z,49.90
2019-04-27T02:29:13.969Z,49.80
2019-04-27T02:31:45.155Z,49.96
2019-04-27T02:34:19.650Z,49.87
2019-04-27T02:36:45.437Z,49.86
2019-04-27T02:39:12.304Z,49.81
2019-04-27T02:41:40.011Z,49.99
2019-04-27T02:44:14.787Z,50.05
2019-04-27T02:46:41.668Z,50.00
2019-04-27T02:49:10.454Z,49.82
2019-04-27T02:51:42.807Z,49.82
2019-04-27T02:54:12.648Z,49.98
2019-04-27T02:56:40.531Z,49.83
2019-04-27T02:59:11.504Z,50.00
2019-04-27T03:01:37.232Z,50.14
2019-04-27T03:04:04.052Z,49.92
2019-04-27T03:06:30.917Z,50.01
2019-04-27T03:09:00.024Z,49.97
2019-04-27T03:11:30.475Z,49.98
2019-04-27T03:13:59.877Z,50.09
2019-04-27T03:16:40.148Z,50.16
2019-04-27T03:19:24.831Z,50.00
2019-04-27T03:21:56.167Z,50.14
2019-04-27T03:24:40.829Z,50.00
2019-04-27T03:27:09.755Z,50.13
2019-04-27T03:29:36.330Z,50.18
2019-04-27T03:32:03.168Z,50.27
2019-04-27T03:34:32.067Z,50.20
2019-04-27T03:36:59.776Z,50.20
2019-04-27T03:39:26.756Z,50.02
2019-04-27T03:41:53.616Z,50.24
2019-04-27T03:44:20.428Z,50.24
2019-04-27T03:46:49.486Z,50.29
2019-04-27T03:49:31.920Z,50.23
2019-04-27T03:51:51.969Z,50.25
2019-04-27T03:54:22.200Z,50.30
2019-04-27T03:56:50.931Z,50.46
2019-04-27T03:59:19.659Z,50.26
2019-04-27T04:01:46.561Z,50.22
2019-04-27T04:04:13.369Z,50.39
2019-04-27T04:06:40.254Z,50.40
2019-04-27T04:09:07.202Z,50.42
2019-04-27T04:11:35.693Z,50.33
2019-04-27T04:14:04.154Z,50.48
2019-04-27T04:16:32.618Z,50.39
2019-04-27T04:19:04.007Z,50.23
2019-04-27T04:21:30.830Z,50.23
2019-04-27T04:23:57.637Z,50.43
2019-04-27T04:26:24.445Z,50.46
2019-04-27T04:28:51.346Z,50.49
2019-04-27T04:31:20.765Z,50.55
2019-04-27T04:33:49.123Z,50.57
2019-04-27T04:36:15.317Z,50.35
2019-04-27T04:38:42.219Z,50.43
2019-04-27T04:41:16.555Z,50.51
2019-04-27T04:43:44.996Z,50.46
2019-04-27T04:46:29.828Z,50.55
2019-04-27T04:48:56.939Z,50.38
2019-04-27T04:51:23.825Z,50.34
2019-04-27T04:53:51.843Z,50.49
2019-04-27T04:56:18.987Z,50.25
2019-04-27T04:58:45.803Z,50.39
2019-04-27T05:01:12.610Z,50.43
2019-04-27T05:03:39.440Z,50.39
2019-04-27T05:06:06.240Z,50.48
2019-04-27T05:08:33.035Z,50.35
2019-04-27T05:10:59.839Z,50.35
2019-04-27T05:13:26.639Z,50.49
2019-04-27T05:15:53.527Z,50.56
2019-04-27T05:18:20.364Z,50.48
2019-04-27T05:20:48.979Z,50.56
2019-04-27T05:23:15.840Z,50.53
2019-04-27T05:25:42.639Z,50.50
2019-04-27T05:28:09.887Z,50.62
2019-04-27T05:30:36.762Z,50.67
2019-04-27T05:33:03.802Z,50.62
2019-04-27T05:35:30.584Z,50.63
2019-04-27T05:38:00.869Z,50.62
2019-04-27T05:40:25.918Z,50.67
2019-04-27T05:42:55.265Z,50.51
2019-04-27T05:45:39.654Z,50.75
2019-04-27T05:48:11.321Z,50.65
2019-04-27T05:50:43.455Z,50.86
2019-04-27T05:53:06.638Z,50.74
2019-04-27T05:55:33.461Z,50.67
2019-04-27T05:58:00.251Z,50.58
2019-04-27T06:00:29.168Z,50.84
2019-04-27T06:02:55.596Z,50.77
2019-04-27T06:05:22.962Z,50.69
2019-04-27T06:07:50.073Z,50.56
2019-04-27T06:10:16.971Z,50.66
2019-04-27T06:12:43.893Z,50.84
2019-04-27T06:15:10.699Z,50.78
2019-04-27T06:17:38.706Z,50.80
2019-04-27T06:20:05.668Z,50.60
2019-04-27T06:22:32.602Z,50.72
2019-04-27T06:25:00.326Z,50.73
2019-04-27T06:27:30.215Z,50.97
2019-04-27T06:29:55.929Z,50.75
2019-04-27T06:32:22.766Z,50.90
2019-04-27T06:34:49.567Z,50.72
2019-04-27T06:37:16.434Z,50.79
2019-04-27T06:39:43.257Z,50.85
2019-04-27T06:42:16.778Z,50.88
2019-04-27T06:44:39.494Z,50.81
2019-04-27T06:47:06.548Z,50.88
2019-04-27T06:49:33.359Z,50.89
2019-04-27T06:52:00.159Z,50.89
2019-04-27T06:54:28.684Z,50.65
2019-04-27T06:56:55.764Z,50.73
2019-04-27T06:59:22.554Z,50.66
2019-04-27T07:01:49.334Z,50.74
2019-04-27T07:04:16.139Z,50.80
2019-04-27T07:06:53.400Z,50.92
2019-04-27T07:09:11.473Z,50.74
2019-04-27T07:11:39.508Z,50.89
2019-04-27T07:14:06.472Z,50.91
2019-04-27T07:16:33.294Z,50.89
2019-04-27T07:19:00.524Z,50.98
2019-04-27T07:21:28.645Z,50.78
2019-04-27T07:23:59.430Z,50.88
2019-04-27T07:26:26.663Z,51.01
2019-04-27T07:28:53.553Z,50.85
2019-04-27T07:31:20.377Z,50.75
2019-04-27T07:33:47.323Z,51.02
2019-04-27T07:36:14.231Z,50.98
2019-04-27T07:38:41.392Z,50.90
2019-04-27T07:41:09.678Z,50.92
2019-04-27T07:43:39.673Z,50.83
2019-04-27T07:46:06.546Z,50.84
2019-04-27T07:48:33.347Z,50.82
2019-04-27T07:51:00.186Z,50.81
2019-04-27T07:53:29.063Z,50.69
2019-04-27T07:55:55.812Z,50.93
2019-04-27T07:58:22.719Z,50.81
2019-04-27T08:00:51.059Z,50.86
2019-04-27T08:03:19.552Z,50.79
2019-04-27T08:05:46.544Z,50.70
2019-04-27T08:08:13.517Z,50.79
2019-04-27T08:10:40.325Z,50.95
2019-04-27T08:13:07.153Z,50.67
2019-04-27T08:15:33.961Z,50.88
2019-04-27T08:18:00.838Z,50.85
2019-04-27T08:20:29.243Z,50.76
2019-04-27T08:22:56.317Z,51.00
2019-04-27T08:25:23.739Z,50.29
2019-04-27T08:27:54.864Z,51.30
2019-04-27T08:30:29.482Z,51.00
2019-04-27T08:32:59.376Z,45.45
2019-04-27T08:35:26.266Z,45.97
2019-04-27T08:37:53.067Z,45.58
2019-04-27T08:40:19.875Z,45.96
2019-04-27T08:42:46.656Z,45.40
2019-04-27T08:45:13.436Z,45.98
2019-04-27T08:47:41.719Z,45.52
2019-04-27T08:50:09.206Z,46.45
2019-04-27T08:52:36.157Z,46.64
2019-04-27T08:55:02.924Z,45.81
2019-04-27T08:57:29.726Z,46.07
2019-04-27T08:59:56.487Z,45.76
2019-04-27T09:02:23.281Z,45.85
2019-04-27T09:04:50.062Z,45.82
2019-04-27T09:07:34.868Z,45.81
2019-04-27T09:10:06.196Z,45.77
2019-04-27T09:12:51.827Z,45.80
2019-04-27T09:15:31.776Z,45.72
2019-04-27T09:17:59.582Z,45.43
2019-04-27T09:20:33.759Z,45.31
2019-04-27T09:23:00.544Z,45.18
2019-04-27T09:25:27.350Z,45.25
2019-04-27T09:27:54.109Z,44.92
2019-04-27T09:30:20.922Z,44.68
2019-04-27T09:32:47.709Z,44.96
2019-04-27T09:35:15.867Z,44.58
2019-04-27T09:37:42.943Z,44.65
2019-04-27T09:40:09.707Z,44.57
2019-04-27T09:42:38.407Z,44.64
2019-04-27T09:45:06.567Z,44.41
2019-04-27T09:47:33.492Z,44.27
2019-04-27T09:50:00.265Z,43.94
2019-04-27T09:52:28.662Z,43.88
2019-04-27T09:54:56.014Z,43.93
2019-04-27T09:57:22.883Z,44.24
2019-04-27T09:59:49.696Z,44.29
2019-04-27T10:02:16.608Z,44.01
2019-04-27T10:04:43.667Z,43.76
2019-04-27T10:07:10.442Z,43.82
2019-04-27T10:09:37.247Z,43.73
2019-04-27T10:12:05.331Z,43.78
2019-04-27T10:14:32.639Z,43.83
2019-04-27T10:16:59.397Z,43.80
2019-04-27T10:19:30.654Z,43.63
2019-04-27T10:21:54.690Z,43.18
2019-04-27T10:24:21.480Z,43.20
2019-04-27T10:26:48.274Z,43.01
2019-04-27T10:29:16.196Z,42.58
2019-04-27T10:31:43.092Z,42.14
2019-04-27T10:34:09.876Z,42.26
2019-04-27T10:36:39.491Z,42.12
2019-04-27T10:39:06.296Z,42.01
2019-04-27T10:41:33.075Z,42.24
2019-04-27T10:43:59.836Z,42.76
2019-04-27T10:46:26.626Z,43.16
2019-04-27T10:48:53.392Z,43.53
2019-04-27T10:51:20.164Z,43.77
2019-04-27T10:53:46.921Z,43.95
2019-04-27T10:56:13.690Z,44.06
2019-04-27T10:58:40.470Z,44.13
2019-04-27T11:01:08.551Z,44.21
2019-04-27T11:03:55.486Z,44.28
2019-04-27T11:06:33.925Z,44.32
2019-04-27T11:09:00.782Z,44.36
2019-04-27T11:11:27.807Z,44.31
2019-04-27T11:13:56.203Z,44.44
2019-04-27T11:16:23.257Z,44.49
2019-04-27T11:18:50.050Z,44.51
2019-04-27T11:21:16.848Z,44.59
2019-04-27T11:23:43.642Z,44.54
2019-04-27T11:26:10.418Z,44.64
2019-04-27T11:28:37.185Z,44.73
2019-04-27T11:31:03.978Z,44.83
2019-04-27T11:33:30.761Z,44.84
2019-04-27T11:36:17.518Z,44.89
2019-04-27T11:38:44.322Z,44.91
2019-04-27T11:41:11.090Z,45.01
2019-04-27T11:43:37.905Z,44.99
2019-04-27T11:46:06.150Z,45.40
2019-04-27T11:48:33.130Z,45.96
2019-04-27T11:50:59.927Z,46.40
2019-04-27T11:53:26.688Z,46.77
2019-04-27T11:55:53.471Z,47.58
2019-04-27T11:58:20.236Z,47.09
2019-04-27T12:00:47.036Z,46.97
2019-04-27T12:03:13.798Z,47.04
2019-04-27T12:05:40.586Z,46.97
2019-04-27T12:08:07.351Z,46.96
2019-04-27T12:10:34.143Z,46.99
2019-04-27T12:13:00.928Z,46.92
2019-04-27T12:15:27.756Z,46.83
2019-04-27T12:17:56.098Z,46.85
2019-04-27T12:20:23.075Z,46.79
2019-04-27T12:22:49.850Z,46.73
2019-04-27T12:25:16.637Z,46.74
2019-04-27T12:28:01.563Z,46.74
2019-04-27T12:30:29.969Z,46.66
2019-04-27T12:32:56.743Z,46.55
2019-04-27T12:35:25.537Z,46.36
2019-04-27T12:37:52.095Z,46.43
2019-04-27T12:40:18.885Z,46.29
2019-04-27T12:42:45.688Z,46.15
2019-04-27T12:45:12.465Z,46.12
2019-04-27T12:47:39.247Z,46.15
2019-04-27T12:50:06.201Z,46.13
2019-04-27T12:52:33.373Z,46.05
2019-04-27T12:55:16.792Z,46.13
2019-04-27T12:57:56.017Z,46.17
2019-04-27T13:00:27.194Z,46.17
2019-04-27T13:02:55.597Z,46.14
2019-04-27T13:05:22.555Z,46.17
2019-04-27T13:07:49.317Z,46.18
2019-04-27T13:10:16.087Z,46.26
2019-04-27T13:12:42.856Z,46.22
2019-04-27T13:15:09.656Z,46.25
2019-04-27T13:17:36.712Z,46.31
2019-04-27T13:20:03.569Z,46.27
2019-04-27T13:22:30.345Z,46.23
2019-04-27T13:24:57.124Z,46.18
2019-04-27T13:27:23.902Z,46.04
2019-04-27T13:29:50.684Z,45.98
2019-04-27T13:32:17.787Z,46.02
2019-04-27T13:34:46.185Z,46.04
2019-04-27T13:37:32.987Z,46.09
2019-04-27T13:40:06.986Z,46.14
2019-04-27T13:42:29.925Z,46.10
2019-04-27T13:44:57.776Z,46.13
2019-04-27T13:47:36.708Z,46.04
2019-04-27T13:50:07.986Z,46.00
2019-04-27T13:52:36.240Z,45.98
2019-04-27T13:55:03.126Z,46.04
2019-04-27T13:57:29.881Z,46.13
2019-04-27T13:59:56.692Z,46.07
2019-04-27T14:02:24.227Z,46.05
2019-04-27T14:04:51.987Z,46.05
2019-04-27T14:07:18.781Z,46.12
2019-04-27T14:09:45.594Z,46.07
2019-04-27T14:12:21.867Z,46.45
2019-04-27T14:14:49.018Z,46.27
2019-04-27T14:17:15.938Z,46.32
2019-04-27T14:19:42.842Z,46.40
2019-04-27T14:22:09.622Z,46.45
2019-04-27T14:24:40.400Z,46.40
2019-04-27T14:27:07.195Z,46.49
2019-04-27T14:29:33.956Z,46.48
2019-04-27T14:32:00.772Z,46.48
2019-04-27T14:34:28.418Z,46.47
2019-04-27T14:36:55.331Z,46.57
2019-04-27T14:39:22.299Z,46.97
2019-04-27T14:41:49.253Z,46.87
2019-04-27T14:44:16.056Z,46.59
2019-04-27T14:46:42.843Z,46.56
2019-04-27T14:49:09.773Z,46.48
2019-04-27T14:51:39.869Z,46.50
2019-04-27T14:54:05.392Z,46.52
2019-04-27T14:56:32.210Z,46.56
2019-04-27T14:58:59.088Z,46.56
2019-04-27T15:01:25.972Z,46.68
2019-04-27T15:03:52.777Z,46.67
2019-04-27T15:06:19.913Z,46.59
2019-04-27T15:08:49.054Z,46.69
2019-04-27T15:11:19.236Z,46.73
2019-04-27T15:13:47.987Z,46.70
2019-04-27T15:16:12.727Z,46.79
2019-04-27T15:18:43.662Z,46.73
2019-04-27T15:21:10.341Z,46.78
2019-04-27T15:23:37.409Z,46.78
2019-04-27T15:26:04.284Z,46.81
2019-04-27T15:28:35.856Z,46.76
2019-04-27T15:31:04.282Z,46.64
2019-04-27T15:33:51.425Z,46.71
2019-04-27T15:36:34.277Z,46.88
2019-04-27T15:39:02.720Z,46.85
2019-04-27T15:41:48.522Z,46.97
2019-04-27T15:44:16.073Z,46.97
2019-04-27T15:46:43.219Z,47.00
2019-04-27T15:49:11.566Z,46.94
2019-04-27T15:51:38.960Z,46.94
2019-04-27T15:54:05.897Z,47.10
2019-04-27T15:56:35.092Z,47.04
2019-04-27T15:59:01.233Z,46.96
2019-04-27T16:01:29.658Z,46.97
2019-04-27T16:03:58.256Z,46.96
2019-04-27T16:06:25.050Z,47.01
2019-04-27T16:08:51.876Z,47.06
2019-04-27T16:11:19.799Z,47.09
2019-04-27T16:13:48.422Z,47.06
2019-04-27T16:16:15.319Z,47.18
2019-04-27T16:18:42.134Z,47.27
2019-04-27T16:21:10.902Z,47.21
2019-04-27T16:23:42.634Z,47.22
2019-04-27T16:26:10.919Z,47.18
2019-04-27T16:28:34.454Z,47.18
2019-04-27T16:31:01.283Z,47.37
2019-04-27T16:33:28.811Z,47.41
2019-04-27T16:36:00.349Z,47.32
2019-04-27T16:38:33.574Z,47.28
2019-04-27T16:40:59.772Z,47.33
2019-04-27T16:43:29.982Z,47.19
2019-04-27T16:45:57.943Z,47.34
2019-04-27T16:48:22.632Z,47.38
2019-04-27T16:50:49.448Z,47.40
2019-04-27T16:53:16.230Z,47.43
2019-04-27T16:55:43.111Z,47.44
2019-04-27T16:58:15.713Z,47.44
2019-04-27T17:00:40.831Z,47.49
2019-04-27T17:03:09.096Z,47.54
2019-04-27T17:05:36.265Z,47.59
2019-04-27T17:08:04.547Z,47.71
2019-04-27T17:10:31.465Z,47.83
2019-04-27T17:12:59.118Z,47.76
2019-04-27T17:15:46.303Z,47.70
2019-04-27T17:18:19.858Z,47.88
2019-04-27T17:20:48.379Z,47.79
2019-04-27T17:23:17.020Z,47.74
2019-04-27T17:25:44.545Z,47.76
2019-04-27T17:28:15.900Z,47.90
2019-04-27T17:30:45.046Z,48.10
2019-04-27T17:33:31.225Z,48.09
2019-04-27T17:35:59.596Z,48.12
2019-04-27T17:38:26.650Z,48.03
2019-04-27T17:40:53.420Z,48.08
2019-04-27T17:43:20.249Z,48.22
2019-04-27T17:45:48.604Z,48.27
2019-04-27T17:48:15.727Z,48.21
2019-04-27T17:50:42.512Z,48.23
2019-04-27T17:53:09.301Z,48.43
2019-04-27T17:55:36.096Z,47.57
2019-04-27T17:58:05.257Z,48.30
2019-04-27T18:00:32.955Z,48.12
2019-04-27T18:02:59.904Z,48.22
2019-04-27T18:05:28.467Z,48.09
2019-04-27T18:07:55.193Z,48.18
2019-04-27T18:10:24.307Z,48.16
2019-04-27T18:12:50.499Z,48.14
2019-04-27T18:15:17.283Z,48.08
2019-04-27T18:17:50.013Z,48.02
2019-04-27T18:20:25.075Z,47.98
2019-04-27T18:23:02.710Z,48.04
2019-04-27T18:25:31.134Z,47.77
2019-04-27T18:27:59.547Z,46.41
2019-04-27T18:30:38.106Z,46.14
2019-04-27T18:33:02.341Z,45.95
2019-04-27T18:35:29.667Z,45.86
2019-04-27T18:37:58.404Z,45.89
2019-04-27T18:40:31.844Z,46.04
2019-04-27T18:42:53.599Z,45.90
2019-04-27T18:45:20.425Z,45.67
2019-04-27T18:47:49.187Z,46.04
2019-04-27T18:50:33.986Z,45.73
2019-04-27T18:53:05.385Z,45.44
2019-04-27T18:55:32.162Z,45.84
2019-04-27T18:58:01.857Z,45.20
2019-04-27T19:00:27.696Z,45.24
2019-04-27T19:02:55.990Z,45.40
2019-04-27T19:05:22.780Z,45.81
2019-04-27T19:07:49.560Z,46.08
2019-04-27T19:10:16.355Z,46.21
2019-04-27T19:12:43.210Z,46.38
2019-04-27T19:15:10.093Z,46.59
2019-04-27T19:17:38.478Z,46.61
2019-04-27T19:20:05.360Z,46.67
2019-04-27T19:22:34.612Z,46.72
2019-04-27T19:25:00.758Z,47.29
2019-04-27T19:27:45.443Z,47.04
2019-04-27T19:30:18.875Z,47.48
2019-04-27T19:32:45.369Z,47.27
2019-04-27T19:35:12.145Z,47.61
2019-04-27T19:37:39.771Z,47.54
2019-04-27T19:40:08.533Z,47.42
2019-04-27T19:42:35.446Z,47.32
2019-04-27T19:45:02.215Z,47.72
2019-04-27T19:47:29.950Z,47.55
2019-04-27T19:49:56.800Z,47.67
2019-04-27T19:52:23.928Z,47.50
2019-04-27T19:54:50.738Z,47.75
2019-04-27T19:57:30.912Z,47.66
2019-04-27T19:59:48.930Z,47.54
2019-04-27T20:02:18.500Z,47.67
2019-04-27T20:04:47.304Z,47.70
2019-04-27T20:07:14.097Z,47.75
2019-04-27T20:09:54.683Z,47.78
2019-04-27T20:12:21.526Z,47.74
2019-04-27T20:14:57.071Z,47.64
2019-04-27T20:17:23.849Z,47.67
2019-04-27T20:19:51.591Z,47.73
2019-04-27T20:22:20.742Z,47.73
2019-04-27T20:24:47.399Z,47.66
2019-04-27T20:27:14.207Z,47.76
2019-04-27T20:29:40.982Z,47.82
2019-04-27T20:32:07.801Z,47.59
2019-04-27T20:34:34.578Z,48.15
2019-04-27T20:37:01.673Z,48.54
2019-04-27T20:39:28.617Z,48.39
2019-04-27T20:41:55.395Z,48.54
2019-04-27T20:44:22.302Z,48.48
2019-04-27T20:46:49.162Z,48.49
2019-04-27T20:49:17.646Z,48.88
2019-04-27T20:51:50.954Z,48.33
2019-04-27T20:54:18.271Z,48.54
2019-04-27T20:56:45.088Z,48.80
2019-04-27T20:59:11.878Z,48.56
2019-04-27T21:01:38.705Z,48.75
2019-04-27T21:04:05.583Z,48.82
2019-04-27T21:06:34.032Z,48.74
2019-04-27T21:09:00.845Z,48.82
2019-04-27T21:11:31.029Z,48.73
2019-04-27T21:14:01.029Z,48.79
2019-04-27T21:16:28.105Z,49.03
2019-04-27T21:18:55.093Z,48.92
2019-04-27T21:21:21.947Z,48.76
2019-04-27T21:23:48.903Z,48.88
2019-04-27T21:26:15.919Z,48.71
2019-04-27T21:28:43.292Z,48.58
2019-04-27T21:31:12.524Z,48.57
2019-04-27T21:33:40.826Z,48.50
2019-04-27T21:36:07.756Z,48.50
2019-04-27T21:38:34.654Z,48.44
2019-04-27T21:41:01.449Z,48.51
2019-04-27T21:43:28.289Z,48.59
2019-04-27T21:45:55.201Z,48.96
2019-04-27T21:48:22.020Z,48.54
2019-04-27T21:50:48.843Z,48.62
2019-04-27T21:53:21.147Z,48.71
2019-04-27T21:55:50.757Z,48.79
2019-04-27T21:58:28.303Z,48.65
2019-04-27T22:00:48.398Z,48.73
2019-04-27T22:03:16.897Z,48.69
2019-04-27T22:05:43.783Z,49.06
2019-04-27T22:08:11.657Z,48.72
2019-04-27T22:10:38.862Z,48.75
2019-04-27T22:13:05.673Z,48.60
2019-04-27T22:15:32.472Z,48.71
2019-04-27T22:18:00.671Z,48.60
2019-04-27T22:20:29.233Z,48.69
2019-04-27T22:23:01.737Z,48.89
2019-04-27T22:25:36.196Z,48.83
2019-04-27T22:28:03.099Z,48.64
2019-04-27T22:30:31.218Z,48.67
2019-04-27T22:32:58.123Z,48.96
2019-04-27T22:35:24.946Z,48.66
2019-04-27T22:37:51.905Z,48.82
2019-04-27T22:40:21.474Z,48.92
2019-04-27T22:43:08.364Z,48.65
2019-04-27T22:45:36.959Z,48.69
2019-04-27T22:48:04.061Z,48.91
2019-04-27T22:50:31.322Z,48.83
2019-04-27T22:52:58.335Z,48.96
2019-04-27T22:55:25.138Z,48.67
2019-04-27T22:57:53.601Z,48.73
2019-04-27T23:00:38.633Z,48.71
2019-04-27T23:03:07.200Z,48.54
2019-04-27T23:05:34.134Z,48.58
2019-04-27T23:08:01.931Z,48.71
2019-04-27T23:10:28.928Z,48.48
2019-04-27T23:12:55.751Z,48.56
2019-04-27T23:15:24.177Z,48.43
2019-04-27T23:17:52.791Z,48.46
2019-04-27T23:20:20.822Z,48.64
2019-04-27T23:22:47.728Z,48.65
2019-04-27T23:25:14.516Z,48.47
2019-04-27T23:27:41.386Z,48.43
2019-04-27T23:30:08.586Z,48.47
2019-04-27T23:32:37.083Z,48.52
2019-04-27T23:35:03.884Z,48.75
2019-04-27T23:37:30.738Z,48.62
2019-04-27T23:39:57.533Z,48.48
2019-04-27T23:42:24.334Z,48.70
2019-04-27T23:44:51.467Z,48.45
2019-04-27T23:47:18.264Z,48.70
2019-04-27T23:49:45.140Z,48.65
2019-04-27T23:52:16.395Z,48.67
2019-04-27T23:54:43.244Z,48.34
2019-04-27T23:57:11.726Z,48.41
2019-04-27T23:59:38.594Z,48.44
